sensor_id;sensor_type;location;lat;lon;timestamp;P1;durP1;ratioP1;P2;durP2;ratioP2
9914;SDS011;4996;48.746;9.174;2023-01-25T00:00:43;27.17;;;15.53;;
9914;SDS011;4996;48.746;9.174;2023-01-25T00:03:09;39.57;;;18.33;;
9914;SDS011;4996;48.746;9.174;2023-01-25T00:05:34;34.13;;;16.27;;
9914;SDS011;4996;48.746;9.174;2023-01-25T00:08:00;32.37;;;16.17;;
9914;SDS011;4996;48.746;9.174;2023-01-25T00:10:25;44.90;;;16.27;;
9914;SDS011;4996;48.746;9.174;2023-01-25T00:12:51;38.53;;;16.00;;
9914;SDS011;4996;48.746;9.174;2023-01-25T00:15:17;36.97;;;17.57;;
9914;SDS011;4996;48.746;9.174;2023-01-25T00:17:42;35.33;;;16.40;;
9914;SDS011;4996;48.746;9.174;2023-01-25T00:20:08;31.97;;;15.67;;
9914;SDS011;4996;48.746;9.174;2023-01-25T00:22:34;37.30;;;18.17;;
9914;SDS011;4996;48.746;9.174;2023-01-25T00:24:59;29.83;;;15.27;;
9914;SDS011;4996;48.746;9.174;2023-01-25T00:27:25;37.50;;;16.20;;
9914;SDS011;4996;48.746;9.174;2023-01-25T00:29:51;27.83;;;13.37;;
9914;SDS011;4996;48.746;9.174;2023-01-25T00:34:45;34.05;;;15.50;;
9914;SDS011;4996;48.746;9.174;2023-01-25T00:37:16;30.92;;;16.60;;
9914;SDS011;4996;48.746;9.174;2023-01-25T00:40:03;34.53;;;15.88;;
9914;SDS011;4996;48.746;9.174;2023-01-25T00:42:30;34.20;;;14.60;;
9914;SDS011;4996;48.746;9.174;2023-01-25T00:44:55;32.30;;;16.20;;
9914;SDS011;4996;48.746;9.174;2023-01-25T00:47:21;32.03;;;15.23;;
9914;SDS011;4996;48.746;9.174;2023-01-25T00:49:46;36.73;;;16.67;;
9914;SDS011;4996;48.746;9.174;2023-01-25T00:52:12;30.23;;;16.07;;
9914;SDS011;4996;48.746;9.174;2023-01-25T00:54:38;34.10;;;17.50;;
9914;SDS011;4996;48.746;9.174;2023-01-25T00:57:04;32.40;;;15.03;;
9914;SDS011;4996;48.746;9.174;2023-01-25T00:59:30;28.75;;;14.75;;
9914;SDS011;4996;48.746;9.174;2023-01-25T01:01:56;30.87;;;16.13;;
9914;SDS011;4996;48.746;9.174;2023-01-25T01:04:22;31.27;;;14.52;;
9914;SDS011;4996;48.746;9.174;2023-01-25T01:06:49;35.88;;;17.73;;
9914;SDS011;4996;48.746;9.174;2023-01-25T01:09:16;32.70;;;16.08;;
9914;SDS011;4996;48.746;9.174;2023-01-25T01:11:42;33.25;;;16.38;;
9914;SDS011;4996;48.746;9.174;2023-01-25T01:14:09;30.35;;;15.75;;
9914;SDS011;4996;48.746;9.174;2023-01-25T01:16:34;35.13;;;17.23;;
9914;SDS011;4996;48.746;9.174;2023-01-25T01:19:00;31.50;;;15.67;;
9914;SDS011;4996;48.746;9.174;2023-01-25T01:21:25;32.20;;;15.87;;
9914;SDS011;4996;48.746;9.174;2023-01-25T01:23:52;33.38;;;16.48;;
9914;SDS011;4996;48.746;9.174;2023-01-25T01:26:19;31.17;;;17.00;;
9914;SDS011;4996;48.746;9.174;2023-01-25T01:28:44;30.77;;;16.00;;
9914;SDS011;4996;48.746;9.174;2023-01-25T01:31:12;29.63;;;14.90;;
9914;SDS011;4996;48.746;9.174;2023-01-25T01:33:42;32.95;;;16.08;;
9914;SDS011;4996;48.746;9.174;2023-01-25T01:36:09;36.57;;;18.57;;
9914;SDS011;4996;48.746;9.174;2023-01-25T01:38:36;31.08;;;14.50;;
9914;SDS011;4996;48.746;9.174;2023-01-25T01:41:01;30.67;;;16.63;;
9914;SDS011;4996;48.746;9.174;2023-01-25T01:43:27;32.67;;;16.10;;
9914;SDS011;4996;48.746;9.174;2023-01-25T01:45:56;33.58;;;15.20;;
9914;SDS011;4996;48.746;9.174;2023-01-25T01:49:02;35.05;;;15.00;;
9914;SDS011;4996;48.746;9.174;2023-01-25T01:51:37;25.10;;;13.95;;
9914;SDS011;4996;48.746;9.174;2023-01-25T01:54:11;29.42;;;16.20;;
9914;SDS011;4996;48.746;9.174;2023-01-25T01:56:45;30.88;;;15.55;;
9914;SDS011;4996;48.746;9.174;2023-01-25T01:59:15;28.60;;;14.65;;
9914;SDS011;4996;48.746;9.174;2023-01-25T02:01:42;32.10;;;14.68;;
9914;SDS011;4996;48.746;9.174;2023-01-25T02:04:08;29.58;;;15.57;;
9914;SDS011;4996;48.746;9.174;2023-01-25T02:06:46;26.08;;;13.60;;
9914;SDS011;4996;48.746;9.174;2023-01-25T02:09:17;39.00;;;16.50;;
9914;SDS011;4996;48.746;9.174;2023-01-25T02:14:20;31.92;;;15.45;;
9914;SDS011;4996;48.746;9.174;2023-01-25T02:16:46;28.10;;;15.30;;
9914;SDS011;4996;48.746;9.174;2023-01-25T02:19:13;30.70;;;15.70;;
9914;SDS011;4996;48.746;9.174;2023-01-25T02:21:49;30.20;;;14.45;;
9914;SDS011;4996;48.746;9.174;2023-01-25T02:24:19;31.08;;;14.90;;
9914;SDS011;4996;48.746;9.174;2023-01-25T02:26:51;26.83;;;13.18;;
9914;SDS011;4996;48.746;9.174;2023-01-25T02:29:16;32.70;;;14.90;;
9914;SDS011;4996;48.746;9.174;2023-01-25T02:31:44;25.80;;;14.18;;
9914;SDS011;4996;48.746;9.174;2023-01-25T02:34:11;27.83;;;15.07;;
9914;SDS011;4996;48.746;9.174;2023-01-25T02:36:37;31.47;;;14.10;;
9914;SDS011;4996;48.746;9.174;2023-01-25T02:39:03;35.07;;;16.87;;
9914;SDS011;4996;48.746;9.174;2023-01-25T02:44:03;33.10;;;15.05;;
9914;SDS011;4996;48.746;9.174;2023-01-25T02:46:35;27.70;;;14.13;;
9914;SDS011;4996;48.746;9.174;2023-01-25T02:49:01;31.67;;;14.48;;
9914;SDS011;4996;48.746;9.174;2023-01-25T02:51:30;25.45;;;14.10;;
9914;SDS011;4996;48.746;9.174;2023-01-25T02:53:57;27.05;;;14.00;;
9914;SDS011;4996;48.746;9.174;2023-01-25T02:56:23;25.88;;;14.82;;
9914;SDS011;4996;48.746;9.174;2023-01-25T02:58:49;32.13;;;16.13;;
9914;SDS011;4996;48.746;9.174;2023-01-25T03:01:15;23.17;;;11.60;;
9914;SDS011;4996;48.746;9.174;2023-01-25T03:03:41;29.95;;;15.10;;
9914;SDS011;4996;48.746;9.174;2023-01-25T03:06:07;32.63;;;14.77;;
9914;SDS011;4996;48.746;9.174;2023-01-25T03:08:33;30.43;;;14.03;;
9914;SDS011;4996;48.746;9.174;2023-01-25T03:11:00;32.60;;;15.85;;
9914;SDS011;4996;48.746;9.174;2023-01-25T03:13:27;23.80;;;12.13;;
9914;SDS011;4996;48.746;9.174;2023-01-25T03:16:00;28.80;;;13.73;;
9914;SDS011;4996;48.746;9.174;2023-01-25T03:18:28;26.05;;;13.68;;
9914;SDS011;4996;48.746;9.174;2023-01-25T03:20:53;24.97;;;13.10;;
9914;SDS011;4996;48.746;9.174;2023-01-25T03:23:19;31.83;;;14.10;;
9914;SDS011;4996;48.746;9.174;2023-01-25T03:25:45;30.47;;;13.37;;
9914;SDS011;4996;48.746;9.174;2023-01-25T03:28:10;28.23;;;12.27;;
9914;SDS011;4996;48.746;9.174;2023-01-25T03:30:36;34.63;;;15.23;;
9914;SDS011;4996;48.746;9.174;2023-01-25T03:33:02;28.03;;;13.00;;
9914;SDS011;4996;48.746;9.174;2023-01-25T03:35:27;31.83;;;14.17;;
9914;SDS011;4996;48.746;9.174;2023-01-25T03:37:53;31.47;;;14.23;;
9914;SDS011;4996;48.746;9.174;2023-01-25T03:40:18;27.80;;;13.17;;
9914;SDS011;4996;48.746;9.174;2023-01-25T03:42:44;25.10;;;13.00;;
9914;SDS011;4996;48.746;9.174;2023-01-25T03:45:09;34.23;;;13.23;;
9914;SDS011;4996;48.746;9.174;2023-01-25T03:47:38;23.73;;;11.73;;
9914;SDS011;4996;48.746;9.174;2023-01-25T03:50:04;29.90;;;12.83;;
9914;SDS011;4996;48.746;9.174;2023-01-25T03:52:30;32.10;;;13.80;;
9914;SDS011;4996;48.746;9.174;2023-01-25T03:55:02;24.48;;;12.20;;
9914;SDS011;4996;48.746;9.174;2023-01-25T03:57:28;21.65;;;12.68;;
9914;SDS011;4996;48.746;9.174;2023-01-25T03:59:54;32.23;;;14.07;;
9914;SDS011;4996;48.746;9.174;2023-01-25T04:02:19;29.00;;;13.10;;
9914;SDS011;4996;48.746;9.174;2023-01-25T04:04:45;24.60;;;11.47;;
9914;SDS011;4996;48.746;9.174;2023-01-25T04:07:10;19.30;;;11.47;;
9914;SDS011;4996;48.746;9.174;2023-01-25T04:09:36;29.30;;;11.60;;
9914;SDS011;4996;48.746;9.174;2023-01-25T04:12:01;24.47;;;12.73;;
9914;SDS011;4996;48.746;9.174;2023-01-25T04:14:26;20.33;;;11.53;;
9914;SDS011;4996;48.746;9.174;2023-01-25T04:16:52;19.53;;;10.60;;
9914;SDS011;4996;48.746;9.174;2023-01-25T04:19:18;20.80;;;11.13;;
9914;SDS011;4996;48.746;9.174;2023-01-25T04:21:43;25.20;;;11.40;;
9914;SDS011;4996;48.746;9.174;2023-01-25T04:24:09;22.07;;;10.67;;
9914;SDS011;4996;48.746;9.174;2023-01-25T04:26:34;20.13;;;11.70;;
9914;SDS011;4996;48.746;9.174;2023-01-25T04:29:00;19.67;;;11.43;;
9914;SDS011;4996;48.746;9.174;2023-01-25T04:31:25;20.63;;;10.90;;
9914;SDS011;4996;48.746;9.174;2023-01-25T04:33:51;21.70;;;10.63;;
9914;SDS011;4996;48.746;9.174;2023-01-25T04:36:16;17.63;;;9.73;;
9914;SDS011;4996;48.746;9.174;2023-01-25T04:38:42;23.40;;;11.23;;
9914;SDS011;4996;48.746;9.174;2023-01-25T04:41:08;28.63;;;10.97;;
9914;SDS011;4996;48.746;9.174;2023-01-25T04:43:33;22.65;;;10.23;;
9914;SDS011;4996;48.746;9.174;2023-01-25T04:46:02;20.40;;;10.57;;
9914;SDS011;4996;48.746;9.174;2023-01-25T04:48:27;25.65;;;11.07;;
9914;SDS011;4996;48.746;9.174;2023-01-25T04:50:53;17.10;;;9.43;;
9914;SDS011;4996;48.746;9.174;2023-01-25T04:53:19;20.03;;;9.10;;
9914;SDS011;4996;48.746;9.174;2023-01-25T04:55:45;20.23;;;10.33;;
9914;SDS011;4996;48.746;9.174;2023-01-25T04:58:11;15.80;;;9.68;;
9914;SDS011;4996;48.746;9.174;2023-01-25T05:00:37;19.03;;;9.00;;
9914;SDS011;4996;48.746;9.174;2023-01-25T05:03:02;21.50;;;9.50;;
9914;SDS011;4996;48.746;9.174;2023-01-25T05:05:28;18.40;;;9.70;;
9914;SDS011;4996;48.746;9.174;2023-01-25T05:07:53;13.50;;;7.80;;
9914;SDS011;4996;48.746;9.174;2023-01-25T05:10:19;18.70;;;9.17;;
9914;SDS011;4996;48.746;9.174;2023-01-25T05:12:45;22.33;;;10.53;;
9914;SDS011;4996;48.746;9.174;2023-01-25T05:15:10;15.27;;;8.27;;
9914;SDS011;4996;48.746;9.174;2023-01-25T05:17:36;19.63;;;10.37;;
9914;SDS011;4996;48.746;9.174;2023-01-25T05:20:02;25.73;;;9.73;;
9914;SDS011;4996;48.746;9.174;2023-01-25T05:22:28;16.83;;;9.53;;
9914;SDS011;4996;48.746;9.174;2023-01-25T05:24:53;22.03;;;11.20;;
9914;SDS011;4996;48.746;9.174;2023-01-25T05:27:19;25.10;;;10.00;;
9914;SDS011;4996;48.746;9.174;2023-01-25T05:29:45;22.60;;;9.93;;
9914;SDS011;4996;48.746;9.174;2023-01-25T05:32:15;19.27;;;10.90;;
9914;SDS011;4996;48.746;9.174;2023-01-25T05:34:43;18.77;;;9.82;;
9914;SDS011;4996;48.746;9.174;2023-01-25T05:37:09;19.13;;;10.43;;
9914;SDS011;4996;48.746;9.174;2023-01-25T05:39:37;21.58;;;9.57;;
9914;SDS011;4996;48.746;9.174;2023-01-25T05:42:03;21.37;;;9.50;;
9914;SDS011;4996;48.746;9.174;2023-01-25T05:44:34;18.63;;;9.43;;
9914;SDS011;4996;48.746;9.174;2023-01-25T05:47:00;16.50;;;8.30;;
9914;SDS011;4996;48.746;9.174;2023-01-25T05:49:25;23.60;;;11.80;;
9914;SDS011;4996;48.746;9.174;2023-01-25T05:51:51;20.60;;;10.47;;
9914;SDS011;4996;48.746;9.174;2023-01-25T05:54:16;17.97;;;10.03;;
9914;SDS011;4996;48.746;9.174;2023-01-25T05:56:43;18.25;;;10.43;;
9914;SDS011;4996;48.746;9.174;2023-01-25T05:59:09;19.17;;;8.97;;
9914;SDS011;4996;48.746;9.174;2023-01-25T06:01:36;19.67;;;9.38;;
9914;SDS011;4996;48.746;9.174;2023-01-25T06:04:01;18.10;;;10.03;;
9914;SDS011;4996;48.746;9.174;2023-01-25T06:06:27;21.03;;;10.57;;
9914;SDS011;4996;48.746;9.174;2023-01-25T06:08:53;20.00;;;11.07;;
9914;SDS011;4996;48.746;9.174;2023-01-25T06:11:20;21.33;;;9.67;;
9914;SDS011;4996;48.746;9.174;2023-01-25T06:13:47;19.02;;;10.05;;
9914;SDS011;4996;48.746;9.174;2023-01-25T06:16:14;21.98;;;10.07;;
9914;SDS011;4996;48.746;9.174;2023-01-25T06:18:40;18.95;;;9.40;;
9914;SDS011;4996;48.746;9.174;2023-01-25T06:21:06;19.15;;;10.15;;
9914;SDS011;4996;48.746;9.174;2023-01-25T06:23:32;19.57;;;10.73;;
9914;SDS011;4996;48.746;9.174;2023-01-25T06:25:58;18.43;;;9.40;;
9914;SDS011;4996;48.746;9.174;2023-01-25T06:28:25;18.90;;;10.30;;
9914;SDS011;4996;48.746;9.174;2023-01-25T06:30:53;18.40;;;9.95;;
9914;SDS011;4996;48.746;9.174;2023-01-25T06:33:18;16.83;;;8.90;;
9914;SDS011;4996;48.746;9.174;2023-01-25T06:35:44;20.47;;;10.13;;
9914;SDS011;4996;48.746;9.174;2023-01-25T06:38:09;16.70;;;9.00;;
9914;SDS011;4996;48.746;9.174;2023-01-25T06:40:35;17.53;;;8.83;;
9914;SDS011;4996;48.746;9.174;2023-01-25T06:43:10;17.10;;;9.33;;
9914;SDS011;4996;48.746;9.174;2023-01-25T06:45:36;15.20;;;9.15;;
9914;SDS011;4996;48.746;9.174;2023-01-25T06:48:02;18.98;;;9.70;;
9914;SDS011;4996;48.746;9.174;2023-01-25T06:50:28;24.60;;;10.52;;
9914;SDS011;4996;48.746;9.174;2023-01-25T06:52:54;23.73;;;11.53;;
9914;SDS011;4996;48.746;9.174;2023-01-25T06:55:19;19.20;;;10.43;;
9914;SDS011;4996;48.746;9.174;2023-01-25T06:57:45;18.20;;;10.10;;
9914;SDS011;4996;48.746;9.174;2023-01-25T07:00:11;20.00;;;9.30;;
9914;SDS011;4996;48.746;9.174;2023-01-25T07:02:37;16.15;;;9.65;;
9914;SDS011;4996;48.746;9.174;2023-01-25T07:05:03;15.90;;;9.47;;
9914;SDS011;4996;48.746;9.174;2023-01-25T07:07:29;22.07;;;11.20;;
9914;SDS011;4996;48.746;9.174;2023-01-25T07:09:54;16.10;;;9.00;;
9914;SDS011;4996;48.746;9.174;2023-01-25T07:12:20;21.20;;;9.33;;
9914;SDS011;4996;48.746;9.174;2023-01-25T07:14:46;22.27;;;10.80;;
9914;SDS011;4996;48.746;9.174;2023-01-25T07:17:13;17.80;;;9.63;;
9914;SDS011;4996;48.746;9.174;2023-01-25T07:19:39;18.90;;;9.57;;
9914;SDS011;4996;48.746;9.174;2023-01-25T07:22:04;17.10;;;9.10;;
9914;SDS011;4996;48.746;9.174;2023-01-25T07:24:30;18.87;;;10.30;;
9914;SDS011;4996;48.746;9.174;2023-01-25T07:26:55;27.73;;;9.43;;
9914;SDS011;4996;48.746;9.174;2023-01-25T07:29:21;19.63;;;11.23;;
9914;SDS011;4996;48.746;9.174;2023-01-25T07:31:46;18.93;;;10.70;;
9914;SDS011;4996;48.746;9.174;2023-01-25T07:34:12;21.03;;;10.93;;
9914;SDS011;4996;48.746;9.174;2023-01-25T07:36:38;20.63;;;11.80;;
9914;SDS011;4996;48.746;9.174;2023-01-25T07:39:04;21.35;;;11.85;;
9914;SDS011;4996;48.746;9.174;2023-01-25T07:41:30;19.67;;;10.50;;
9914;SDS011;4996;48.746;9.174;2023-01-25T07:43:59;18.63;;;11.40;;
9914;SDS011;4996;48.746;9.174;2023-01-25T07:46:24;22.50;;;11.07;;
9914;SDS011;4996;48.746;9.174;2023-01-25T07:48:51;18.23;;;10.85;;
9914;SDS011;4996;48.746;9.174;2023-01-25T07:51:18;21.77;;;11.48;;
9914;SDS011;4996;48.746;9.174;2023-01-25T07:56:18;23.60;;;10.30;;
9914;SDS011;4996;48.746;9.174;2023-01-25T07:58:44;16.65;;;8.93;;
9914;SDS011;4996;48.746;9.174;2023-01-25T08:01:12;17.05;;;9.40;;
9914;SDS011;4996;48.746;9.174;2023-01-25T08:03:39;15.18;;;8.82;;
9914;SDS011;4996;48.746;9.174;2023-01-25T08:06:05;20.85;;;10.40;;
9914;SDS011;4996;48.746;9.174;2023-01-25T08:08:32;16.55;;;9.68;;
9914;SDS011;4996;48.746;9.174;2023-01-25T08:11:00;21.27;;;10.45;;
9914;SDS011;4996;48.746;9.174;2023-01-25T08:13:32;17.02;;;9.15;;
9914;SDS011;4996;48.746;9.174;2023-01-25T08:15:57;24.70;;;10.60;;
9914;SDS011;4996;48.746;9.174;2023-01-25T08:18:23;21.20;;;9.83;;
9914;SDS011;4996;48.746;9.174;2023-01-25T08:20:49;18.50;;;9.43;;
9914;SDS011;4996;48.746;9.174;2023-01-25T08:23:15;19.33;;;10.57;;
9914;SDS011;4996;48.746;9.174;2023-01-25T08:25:40;19.93;;;9.97;;
9914;SDS011;4996;48.746;9.174;2023-01-25T08:28:06;20.97;;;11.20;;
9914;SDS011;4996;48.746;9.174;2023-01-25T08:30:32;18.67;;;9.80;;
9914;SDS011;4996;48.746;9.174;2023-01-25T08:32:58;22.00;;;10.27;;
9914;SDS011;4996;48.746;9.174;2023-01-25T08:35:23;15.80;;;9.43;;
9914;SDS011;4996;48.746;9.174;2023-01-25T08:37:49;19.40;;;10.20;;
9914;SDS011;4996;48.746;9.174;2023-01-25T08:40:14;19.37;;;10.33;;
9914;SDS011;4996;48.746;9.174;2023-01-25T08:42:40;18.03;;;9.67;;
9914;SDS011;4996;48.746;9.174;2023-01-25T08:45:07;16.45;;;9.32;;
9914;SDS011;4996;48.746;9.174;2023-01-25T08:47:33;13.45;;;8.57;;
9914;SDS011;4996;48.746;9.174;2023-01-25T08:49:59;18.63;;;9.00;;
9914;SDS011;4996;48.746;9.174;2023-01-25T08:52:25;16.47;;;9.50;;
9914;SDS011;4996;48.746;9.174;2023-01-25T08:54:50;19.67;;;10.50;;
9914;SDS011;4996;48.746;9.174;2023-01-25T08:57:16;18.77;;;10.23;;
9914;SDS011;4996;48.746;9.174;2023-01-25T08:59:41;21.33;;;10.90;;
9914;SDS011;4996;48.746;9.174;2023-01-25T09:02:09;20.27;;;10.30;;
9914;SDS011;4996;48.746;9.174;2023-01-25T09:04:36;19.27;;;9.60;;
9914;SDS011;4996;48.746;9.174;2023-01-25T09:07:01;18.10;;;9.40;;
9914;SDS011;4996;48.746;9.174;2023-01-25T09:09:27;19.17;;;10.10;;
9914;SDS011;4996;48.746;9.174;2023-01-25T09:11:53;24.38;;;11.15;;
9914;SDS011;4996;48.746;9.174;2023-01-25T09:14:19;16.55;;;9.50;;
9914;SDS011;4996;48.746;9.174;2023-01-25T09:16:45;19.50;;;9.87;;
9914;SDS011;4996;48.746;9.174;2023-01-25T09:19:11;16.13;;;9.30;;
9914;SDS011;4996;48.746;9.174;2023-01-25T09:21:37;20.10;;;9.85;;
9914;SDS011;4996;48.746;9.174;2023-01-25T09:24:03;19.40;;;10.40;;
9914;SDS011;4996;48.746;9.174;2023-01-25T09:26:31;25.38;;;11.48;;
9914;SDS011;4996;48.746;9.174;2023-01-25T09:28:57;21.85;;;11.52;;
9914;SDS011;4996;48.746;9.174;2023-01-25T09:31:24;23.70;;;10.50;;
9914;SDS011;4996;48.746;9.174;2023-01-25T09:33:50;19.30;;;10.03;;
9914;SDS011;4996;48.746;9.174;2023-01-25T09:36:16;15.70;;;9.15;;
9914;SDS011;4996;48.746;9.174;2023-01-25T09:38:42;15.10;;;9.17;;
9914;SDS011;4996;48.746;9.174;2023-01-25T09:47:13;17.50;;;7.20;;
9914;SDS011;4996;48.746;9.174;2023-01-25T09:49:54;16.98;;;9.65;;
9914;SDS011;4996;48.746;9.174;2023-01-25T09:53:06;19.02;;;7.80;;
9914;SDS011;4996;48.746;9.174;2023-01-25T09:55:28;18.58;;;9.68;;
9914;SDS011;4996;48.746;9.174;2023-01-25T09:57:55;17.13;;;10.15;;
9914;SDS011;4996;48.746;9.174;2023-01-25T10:00:29;22.05;;;11.25;;
9914;SDS011;4996;48.746;9.174;2023-01-25T10:05:48;13.90;;;8.13;;
9914;SDS011;4996;48.746;9.174;2023-01-25T10:08:17;19.10;;;10.80;;
9914;SDS011;4996;48.746;9.174;2023-01-25T10:10:50;16.85;;;10.38;;
9914;SDS011;4996;48.746;9.174;2023-01-25T10:13:31;19.08;;;10.38;;
9914;SDS011;4996;48.746;9.174;2023-01-25T10:16:04;25.13;;;10.17;;
9914;SDS011;4996;48.746;9.174;2023-01-25T10:18:52;16.10;;;9.70;;
9914;SDS011;4996;48.746;9.174;2023-01-25T10:26:42;18.80;;;10.48;;
9914;SDS011;4996;48.746;9.174;2023-01-25T10:31:50;18.25;;;10.38;;
9914;SDS011;4996;48.746;9.174;2023-01-25T10:34:23;17.00;;;9.68;;
9914;SDS011;4996;48.746;9.174;2023-01-25T10:36:54;16.73;;;10.68;;
9914;SDS011;4996;48.746;9.174;2023-01-25T10:39:21;20.15;;;10.57;;
9914;SDS011;4996;48.746;9.174;2023-01-25T10:41:50;15.27;;;9.50;;
9914;SDS011;4996;48.746;9.174;2023-01-25T10:44:17;18.92;;;10.55;;
9914;SDS011;4996;48.746;9.174;2023-01-25T10:46:59;20.52;;;11.30;;
9914;SDS011;4996;48.746;9.174;2023-01-25T10:49:41;18.92;;;10.55;;
9914;SDS011;4996;48.746;9.174;2023-01-25T10:52:40;22.45;;;10.27;;
9914;SDS011;4996;48.746;9.174;2023-01-25T10:57:46;17.00;;;10.32;;
9914;SDS011;4996;48.746;9.174;2023-01-25T11:03:04;17.30;;;9.20;;
9914;SDS011;4996;48.746;9.174;2023-01-25T11:05:34;15.45;;;9.88;;
9914;SDS011;4996;48.746;9.174;2023-01-25T11:10:54;15.93;;;9.70;;
9914;SDS011;4996;48.746;9.174;2023-01-25T11:13:21;17.70;;;9.43;;
9914;SDS011;4996;48.746;9.174;2023-01-25T11:18:31;14.95;;;9.30;;
9914;SDS011;4996;48.746;9.174;2023-01-25T11:21:12;18.58;;;9.15;;
9914;SDS011;4996;48.746;9.174;2023-01-25T11:23:42;16.88;;;9.15;;
9914;SDS011;4996;48.746;9.174;2023-01-25T11:26:15;23.10;;;10.27;;
9914;SDS011;4996;48.746;9.174;2023-01-25T11:28:42;22.02;;;9.90;;
9914;SDS011;4996;48.746;9.174;2023-01-25T11:31:11;18.63;;;9.63;;
9914;SDS011;4996;48.746;9.174;2023-01-25T11:33:38;23.05;;;11.60;;
9914;SDS011;4996;48.746;9.174;2023-01-25T11:38:50;18.58;;;10.90;;
9914;SDS011;4996;48.746;9.174;2023-01-25T11:41:47;17.75;;;10.90;;
9914;SDS011;4996;48.746;9.174;2023-01-25T11:47:35;19.42;;;10.07;;
9914;SDS011;4996;48.746;9.174;2023-01-25T11:50:06;22.60;;;10.80;;
9914;SDS011;4996;48.746;9.174;2023-01-25T12:00:54;21.13;;;11.38;;
9914;SDS011;4996;48.746;9.174;2023-01-25T12:06:29;37.28;;;17.63;;
9914;SDS011;4996;48.746;9.174;2023-01-25T12:17:22;22.27;;;11.52;;
9914;SDS011;4996;48.746;9.174;2023-01-25T12:27:34;26.83;;;13.88;;
9914;SDS011;4996;48.746;9.174;2023-01-25T12:30:20;18.20;;;11.27;;
9914;SDS011;4996;48.746;9.174;2023-01-25T12:36:03;20.92;;;11.73;;
9914;SDS011;4996;48.746;9.174;2023-01-25T12:38:37;24.17;;;11.70;;
9914;SDS011;4996;48.746;9.174;2023-01-25T12:43:52;24.92;;;10.88;;
9914;SDS011;4996;48.746;9.174;2023-01-25T12:46:39;18.33;;;10.30;;
9914;SDS011;4996;48.746;9.174;2023-01-25T12:49:14;22.38;;;12.60;;
9914;SDS011;4996;48.746;9.174;2023-01-25T12:51:47;24.70;;;12.88;;
9914;SDS011;4996;48.746;9.174;2023-01-25T12:54:16;15.20;;;10.10;;
9914;SDS011;4996;48.746;9.174;2023-01-25T12:56:57;18.75;;;10.05;;
9914;SDS011;4996;48.746;9.174;2023-01-25T13:02:42;23.83;;;12.95;;
9914;SDS011;4996;48.746;9.174;2023-01-25T13:13:49;23.45;;;12.63;;
9914;SDS011;4996;48.746;9.174;2023-01-25T13:16:31;22.23;;;10.93;;
9914;SDS011;4996;48.746;9.174;2023-01-25T13:19:00;25.25;;;13.50;;
9914;SDS011;4996;48.746;9.174;2023-01-25T13:21:59;23.73;;;12.23;;
9914;SDS011;4996;48.746;9.174;2023-01-25T13:32:12;24.42;;;11.30;;
9914;SDS011;4996;48.746;9.174;2023-01-25T13:34:58;19.83;;;10.90;;
9914;SDS011;4996;48.746;9.174;2023-01-25T13:37:25;30.85;;;15.02;;
9914;SDS011;4996;48.746;9.174;2023-01-25T13:39:53;28.70;;;13.98;;
9914;SDS011;4996;48.746;9.174;2023-01-25T13:42:24;15.63;;;10.52;;
9914;SDS011;4996;48.746;9.174;2023-01-25T13:44:51;19.30;;;11.60;;
9914;SDS011;4996;48.746;9.174;2023-01-25T13:47:23;20.38;;;10.93;;
9914;SDS011;4996;48.746;9.174;2023-01-25T13:49:55;22.17;;;12.07;;
9914;SDS011;4996;48.746;9.174;2023-01-25T13:52:26;25.05;;;11.48;;
9914;SDS011;4996;48.746;9.174;2023-01-25T13:54:55;21.58;;;11.88;;
9914;SDS011;4996;48.746;9.174;2023-01-25T13:57:23;20.48;;;11.90;;
9914;SDS011;4996;48.746;9.174;2023-01-25T13:59:57;23.58;;;11.93;;
9914;SDS011;4996;48.746;9.174;2023-01-25T14:02:28;27.67;;;12.55;;
9914;SDS011;4996;48.746;9.174;2023-01-25T14:04:55;22.17;;;13.25;;
9914;SDS011;4996;48.746;9.174;2023-01-25T14:07:24;20.20;;;12.23;;
9914;SDS011;4996;48.746;9.174;2023-01-25T14:09:54;25.67;;;12.93;;
9914;SDS011;4996;48.746;9.174;2023-01-25T14:12:39;17.25;;;11.63;;
9914;SDS011;4996;48.746;9.174;2023-01-25T14:21:07;26.13;;;12.50;;
9914;SDS011;4996;48.746;9.174;2023-01-25T14:23:38;27.23;;;13.43;;
9914;SDS011;4996;48.746;9.174;2023-01-25T14:26:10;26.77;;;12.27;;
9914;SDS011;4996;48.746;9.174;2023-01-25T14:28:45;23.23;;;11.40;;
9914;SDS011;4996;48.746;9.174;2023-01-25T14:34:17;24.50;;;11.05;;
9914;SDS011;4996;48.746;9.174;2023-01-25T14:36:44;22.98;;;14.13;;
9914;SDS011;4996;48.746;9.174;2023-01-25T14:39:23;18.58;;;11.73;;
9914;SDS011;4996;48.746;9.174;2023-01-25T14:41:52;25.58;;;14.00;;
9914;SDS011;4996;48.746;9.174;2023-01-25T14:44:18;27.35;;;14.25;;
9914;SDS011;4996;48.746;9.174;2023-01-25T14:46:45;30.48;;;13.82;;
9914;SDS011;4996;48.746;9.174;2023-01-25T14:51:44;23.88;;;11.98;;
9914;SDS011;4996;48.746;9.174;2023-01-25T14:54:34;24.02;;;12.07;;
9914;SDS011;4996;48.746;9.174;2023-01-25T14:57:05;22.65;;;13.05;;
9914;SDS011;4996;48.746;9.174;2023-01-25T15:02:01;25.52;;;13.00;;
9914;SDS011;4996;48.746;9.174;2023-01-25T15:04:49;35.63;;;14.60;;
9914;SDS011;4996;48.746;9.174;2023-01-25T15:12:58;27.45;;;12.80;;
9914;SDS011;4996;48.746;9.174;2023-01-25T15:15:25;25.02;;;12.93;;
9914;SDS011;4996;48.746;9.174;2023-01-25T15:17:52;27.25;;;13.27;;
9914;SDS011;4996;48.746;9.174;2023-01-25T15:23:07;23.55;;;12.93;;
9914;SDS011;4996;48.746;9.174;2023-01-25T15:28:14;30.48;;;13.57;;
9914;SDS011;4996;48.746;9.174;2023-01-25T15:30:40;33.23;;;15.10;;
9914;SDS011;4996;48.746;9.174;2023-01-25T15:33:07;30.87;;;15.83;;
9914;SDS011;4996;48.746;9.174;2023-01-25T15:35:41;52.42;;;28.58;;
9914;SDS011;4996;48.746;9.174;2023-01-25T15:38:08;32.03;;;18.80;;
9914;SDS011;4996;48.746;9.174;2023-01-25T15:40:36;32.88;;;16.20;;
9914;SDS011;4996;48.746;9.174;2023-01-25T15:43:02;36.07;;;16.43;;
9914;SDS011;4996;48.746;9.174;2023-01-25T15:45:27;31.17;;;14.87;;
9914;SDS011;4996;48.746;9.174;2023-01-25T15:47:53;24.20;;;12.83;;
9914;SDS011;4996;48.746;9.174;2023-01-25T15:50:18;30.53;;;15.20;;
9914;SDS011;4996;48.746;9.174;2023-01-25T15:52:44;30.73;;;14.27;;
9914;SDS011;4996;48.746;9.174;2023-01-25T15:55:11;28.67;;;13.93;;
9914;SDS011;4996;48.746;9.174;2023-01-25T15:57:38;25.50;;;13.32;;
9914;SDS011;4996;48.746;9.174;2023-01-25T16:00:05;27.67;;;14.65;;
9914;SDS011;4996;48.746;9.174;2023-01-25T16:02:31;27.63;;;12.70;;
9914;SDS011;4996;48.746;9.174;2023-01-25T16:04:56;33.17;;;14.63;;
9914;SDS011;4996;48.746;9.174;2023-01-25T16:07:23;30.47;;;15.47;;
9914;SDS011;4996;48.746;9.174;2023-01-25T16:09:50;29.17;;;15.30;;
9914;SDS011;4996;48.746;9.174;2023-01-25T16:12:16;31.17;;;14.43;;
9914;SDS011;4996;48.746;9.174;2023-01-25T16:14:42;28.77;;;14.70;;
9914;SDS011;4996;48.746;9.174;2023-01-25T16:17:14;33.07;;;14.77;;
9914;SDS011;4996;48.746;9.174;2023-01-25T16:19:45;35.30;;;15.88;;
9914;SDS011;4996;48.746;9.174;2023-01-25T16:22:16;30.80;;;14.25;;
9914;SDS011;4996;48.746;9.174;2023-01-25T16:24:42;31.45;;;15.10;;
9914;SDS011;4996;48.746;9.174;2023-01-25T16:27:15;28.83;;;14.55;;
9914;SDS011;4996;48.746;9.174;2023-01-25T16:29:46;30.25;;;13.63;;
9914;SDS011;4996;48.746;9.174;2023-01-25T16:32:12;24.70;;;12.93;;
9914;SDS011;4996;48.746;9.174;2023-01-25T16:34:38;33.10;;;14.10;;
9914;SDS011;4996;48.746;9.174;2023-01-25T16:37:04;30.50;;;14.37;;
9914;SDS011;4996;48.746;9.174;2023-01-25T16:39:29;28.70;;;12.20;;
9914;SDS011;4996;48.746;9.174;2023-01-25T16:41:56;30.60;;;13.27;;
9914;SDS011;4996;48.746;9.174;2023-01-25T16:44:21;28.20;;;13.23;;
9914;SDS011;4996;48.746;9.174;2023-01-25T16:46:47;67.17;;;35.70;;
9914;SDS011;4996;48.746;9.174;2023-01-25T16:49:15;36.88;;;16.63;;
9914;SDS011;4996;48.746;9.174;2023-01-25T16:51:45;35.83;;;15.15;;
9914;SDS011;4996;48.746;9.174;2023-01-25T16:54:13;29.35;;;13.80;;
9914;SDS011;4996;48.746;9.174;2023-01-25T16:56:39;28.20;;;12.40;;
9914;SDS011;4996;48.746;9.174;2023-01-25T16:59:05;26.70;;;12.47;;